Marguerita — D5GS3 — position and weather

sailwx.info

Track history (hours):
 
Tides and Currents Weather Stations Pressure Air Temp Water Temp Dewpoint Dewpoint Depression Visibility Wind Speed Wind Dir Waves Ship Positions

Marguerita

Last reported at 2018-May-23 04:44 UTC. Time now 2018-May-26 10:16 UTC.
Position N 00°00' W 047°35'.

Length 185 m; draft 10.3 m.

Type: Cargo ship. MMSI: 636092597.

Date/timePositionNaut miles runAvg speedWind from/ knotsBaromVisibWave heightAir tempDewpointWater temp
2018-May-23 04:44N 00°00' W 047°35'210.1
2018-May-23 04:30S 00°01' W 047°37'5 9.8
2018-May-23 04:00S 00°04' W 047°41'510.1
2018-May-23 03:28S 00°07' W 047°46'510.6
2018-May-23 03:00S 00°09' W 047°50'710.9
2018-May-23 02:21S 00°14' W 047°55'511.8
2018-May-23 01:55S 00°18' W 047°58'1012.5
2018-May-23 01:07S 00°22' W 048°08'213.1
2018-May-23 00:59S 00°22' W 048°09'613.3
2018-May-23 00:30S 00°27' W 048°14'1113.5
2018-May-22 23:43S 00°35' W 048°21'313.6
2018-May-22 23:30S 00°37' W 048°23'713.4
2018-May-22 23:00S 00°43' W 048°26'612.8
2018-May-22 22:30S 00°49' W 048°29'611.4
2018-May-22 22:00S 00°54' W 048°28'511.0
2018-May-22 21:30S 00°60' W 048°27'510.2
2018-May-22 21:00S 01°04' W 048°29'510.0
2018-May-22 20:31S 01°08' W 048°32'4 7.6
2018-May-22 20:01S 01°12' W 048°33'5 9.1
2018-May-22 19:30S 01°15' W 048°36'5 9.4
2018-May-22 19:00S 01°19' W 048°39'5 9.9
2018-May-22 18:30S 01°24' W 048°41'511.0
2018-May-22 18:00S 01°28' W 048°44'510.5
2018-May-22 17:30S 01°33' W 048°46'1 1.7
2018-May-22 16:51S 01°34' W 048°47'0 0.0
2018-May-22 16:27S 01°34' W 048°47'0 0.0
2018-May-22 15:51S 01°34' W 048°47'0 0.0
2018-May-22 15:15S 01°34' W 048°47'0 0.0
2018-May-22 14:51S 01°34' W 048°47'0 0.0
2018-May-22 14:15S 01°34' W 048°47'0 0.0
2018-May-22 13:57S 01°34' W 048°47'0 0.0
2018-May-22 12:09S 01°34' W 048°47'0 0.0
2018-May-22 11:57S 01°34' W 048°47'0 0.0
2018-May-22 11:21S 01°34' W 048°47'0 0.0
2018-May-22 10:45S 01°34' W 048°47'0 0.0
2018-May-22 10:21S 01°34' W 048°47'0 0.0
2018-May-22 09:57S 01°34' W 048°47'0 0.0
2018-May-22 09:27S 01°34' W 048°47'0 0.0
2018-May-22 08:57S 01°34' W 048°47'0 0.0
2018-May-22 08:27S 01°34' W 048°47'0 0.0
2018-May-22 07:39S 01°34' W 048°47'0 0.0
2018-May-22 07:27S 01°34' W 048°47'0 0.0
2018-May-22 06:57S 01°34' W 048°47'0 0.0
2018-May-22 06:15S 01°34' W 048°47'0 0.0
2018-May-22 05:57S 01°34' W 048°47'0 0.0
2018-May-22 05:27S 01°34' W 048°47'0 0.0
2018-May-22 01:33S 01°34' W 048°47'0 0.0
2018-May-22 01:27S 01°34' W 048°47'0 0.0
2018-May-22 00:57S 01°34' W 048°47'0 0.0
2018-May-22 00:15S 01°34' W 048°47'0 0.0
2018-May-21 23:51S 01°34' W 048°47'0 0.0
2018-May-21 22:57S 01°34' W 048°47'0 0.0
2018-May-21 22:21S 01°34' W 048°47'0 0.0
2018-May-21 21:51S 01°34' W 048°47'0 0.0
2018-May-21 21:27S 01°34' W 048°47'0 0.0
2018-May-21 20:57S 01°34' W 048°47'0 0.0
2018-May-21 20:27S 01°34' W 048°47'0 0.0
2018-May-21 19:57S 01°34' W 048°47'0 0.0
2018-May-21 19:27S 01°34' W 048°47'0 0.0
2018-May-21 18:57S 01°34' W 048°47'0 0.0
2018-May-21 18:27S 01°34' W 048°47'0 0.0
2018-May-21 17:57S 01°34' W 048°47'0 0.0
2018-May-21 17:21S 01°34' W 048°47'0 0.0
2018-May-21 16:57S 01°34' W 048°47'0 0.0
2018-May-21 16:27S 01°34' W 048°47'0 0.0
2018-May-21 15:57S 01°34' W 048°47'0 0.0
2018-May-21 15:21S 01°34' W 048°47'0 0.0
2018-May-21 14:51S 01°34' W 048°47'0 0.0
2018-May-21 14:27S 01°34' W 048°47'0 0.0
2018-May-21 13:57S 01°34' W 048°47'0 0.0
2018-May-21 13:27S 01°34' W 048°47'0 0.0
2018-May-21 12:57S 01°34' W 048°47'0 0.0
2018-May-21 12:27S 01°34' W 048°47'0 0.0
2018-May-21 11:51S 01°34' W 048°47'0 0.0
2018-May-21 11:27S 01°34' W 048°47'0 0.0
2018-May-21 10:57S 01°34' W 048°47'0 0.0
2018-May-21 10:27S 01°34' W 048°47'0 0.0
2018-May-21 09:57S 01°34' W 048°47'0 0.0
2018-May-21 09:27S 01°34' W 048°47'0 0.0
2018-May-21 08:57S 01°34' W 048°47'0 0.0
2018-May-21 08:27S 01°34' W 048°47'0 0.0
2018-May-21 07:57S 01°34' W 048°47'0 0.0
2018-May-21 07:21S 01°34' W 048°47'0 0.0
2018-May-21 06:51S 01°34' W 048°47'0 0.0
2018-May-21 06:27S 01°34' W 048°47'0 0.0
2018-May-21 05:57S 01°34' W 048°47'0 0.0
2018-May-21 05:27S 01°34' W 048°47'0 0.0
2018-May-21 04:57S 01°34' W 048°47'0 0.0
2018-May-21 04:27S 01°34' W 048°47'0 0.0
2018-May-21 03:57S 01°34' W 048°47'0 0.0
2018-May-21 03:27S 01°34' W 048°47'0 0.0
2018-May-21 02:39S 01°34' W 048°47'0 0.0
2018-May-21 02:27S 01°34' W 048°47'0 0.0
2018-May-21 01:57S 01°34' W 048°47'0 0.0
2018-May-21 01:15S 01°34' W 048°47'0 0.0
2018-May-21 00:57S 01°34' W 048°47'0 0.0
2018-May-21 00:27S 01°34' W 048°47'0 0.0
2018-May-20 23:57S 01°34' W 048°47'0 0.0
2018-May-20 23:27S 01°34' W 048°47'0 0.0
2018-May-20 22:57S 01°34' W 048°47'0 0.0
2018-May-20 22:27S 01°34' W 048°47'0 0.0
2018-May-20 21:51S 01°34' W 048°47'0 0.0
2018-May-20 21:27S 01°34' W 048°47'0 0.0
2018-May-20 20:57S 01°34' W 048°47'0 0.0
2018-May-20 16:07S 01°34' W 048°47'0 0.2
2018-May-20 16:00S 01°34' W 048°47'2 3.2
2018-May-20 15:29S 01°32' W 048°47'4 8.7
2018-May-20 15:01S 01°29' W 048°45'612.1
2018-May-20 14:30S 01°24' W 048°42'611.9
2018-May-20 14:01S 01°19' W 048°39'510.7
2018-May-20 13:31S 01°15' W 048°36'510.5
2018-May-20 13:00S 01°10' W 048°33'4 7.8
2018-May-20 12:30S 01°07' W 048°30'2 3.9
2018-May-20 11:59S 01°05' W 048°30'0 0.0
2018-May-20 11:29S 01°05' W 048°30'0 0.0
2018-May-20 10:59S 01°05' W 048°30'0 0.0
2018-May-20 10:29S 01°05' W 048°30'0 0.0
2018-May-20 09:59S 01°05' W 048°30'0 0.0
2018-May-20 09:29S 01°05' W 048°30'0 0.0
2018-May-20 08:59S 01°05' W 048°30'0 0.1
2018-May-20 08:29S 01°05' W 048°30'0 0.3
2018-May-20 07:59S 01°05' W 048°30'0 0.1
2018-May-20 07:29S 01°05' W 048°30'0 0.0
2018-May-20 06:59S 01°05' W 048°30'0 0.0
2018-May-20 06:29S 01°05' W 048°30'0 0.0
2018-May-20 05:59S 01°05' W 048°30'0 0.0
2018-May-20 05:29S 01°05' W 048°30'0 0.0
2018-May-20 04:59S 01°05' W 048°30'0 0.0
2018-May-20 04:29S 01°05' W 048°30'0 0.0
2018-May-20 03:59S 01°05' W 048°30'0 0.0
2018-May-20 03:29S 01°05' W 048°30'0 0.0
2018-May-20 02:59S 01°05' W 048°30'0 0.0
2018-May-20 02:23S 01°05' W 048°30'0 0.4
2018-May-20 01:59S 01°05' W 048°30'0 0.2
2018-May-20 01:29S 01°05' W 048°30'0 0.0
2018-May-20 00:59S 01°05' W 048°30'0 0.0
2018-May-20 00:29S 01°05' W 048°30'0 0.0
2018-May-19 23:59S 01°05' W 048°30'0 0.0
2018-May-19 23:29S 01°05' W 048°30'0 0.0
2018-May-19 22:59S 01°05' W 048°30'0 0.0
2018-May-19 22:29S 01°05' W 048°30'0 0.0
2018-May-19 21:59S 01°05' W 048°30'0 0.0
2018-May-19 21:29S 01°05' W 048°30'0 0.1
2018-May-19 20:59S 01°05' W 048°30'0 0.0
2018-May-19 20:29S 01°05' W 048°30'0 0.1
2018-May-19 19:59S 01°05' W 048°30'0 0.3
2018-May-19 19:29S 01°05' W 048°30'0 0.1
2018-May-19 18:56S 01°05' W 048°30'0 0.1
2018-May-19 18:29S 01°05' W 048°30'0 0.0
2018-May-19 17:56S 01°05' W 048°30'0 0.1
2018-May-19 17:29S 01°05' W 048°30'0 0.0
2018-May-19 16:59S 01°05' W 048°30'0 0.0
2018-May-19 16:29S 01°05' W 048°30'0 0.1
2018-May-19 15:56S 01°05' W 048°30'0 0.0
2018-May-19 15:29S 01°05' W 048°30'0 0.0
2018-May-19 15:00S 01°05' W 048°30'0 0.0
2018-May-19 14:29S 01°05' W 048°30'0 0.0
2018-May-19 13:59S 01°05' W 048°30'0 0.1
2018-May-19 13:29S 01°05' W 048°30'0 0.3
2018-May-19 12:59S 01°05' W 048°30'0 0.1
2018-May-19 12:29S 01°05' W 048°30'0 0.0
2018-May-19 11:59S 01°05' W 048°30'0 0.0
2018-May-19 11:29S 01°05' W 048°30'0 0.0
2018-May-19 10:59S 01°05' W 048°30'0 0.0
2018-May-19 10:29S 01°05' W 048°30'0 0.0
2018-May-19 09:59S 01°05' W 048°30'0 0.0
2018-May-19 09:29S 01°05' W 048°30'0 0.0
2018-May-19 08:59S 01°05' W 048°30'0 0.0
2018-May-19 08:29S 01°05' W 048°30'0 0.0
2018-May-19 07:59S 01°05' W 048°30'0 0.2
2018-May-19 07:26S 01°05' W 048°30'0 0.2
2018-May-19 06:59S 01°05' W 048°30'0 0.1
2018-May-19 06:29S 01°05' W 048°30'0 0.1
2018-May-19 05:59S 01°05' W 048°30'0 0.0
2018-May-19 05:29S 01°05' W 048°30'0 0.0
2018-May-19 04:59S 01°05' W 048°30'0 0.0
2018-May-19 04:29S 01°05' W 048°30'0 0.0
2018-May-19 04:00S 01°05' W 048°30'0 0.4
2018-May-19 03:30S 01°05' W 048°30'3 5.2
2018-May-19 03:00S 01°03' W 048°28'4 8.1
2018-May-19 02:30S 00°60' W 048°27'611.0
2018-May-19 02:00S 00°54' W 048°28'611.2
2018-May-19 01:29S 00°49' W 048°29'713.5
2018-May-19 01:00S 00°43' W 048°26'712.1
2018-May-19 00:28S 00°37' W 048°23'612.7
2018-May-19 00:00S 00°33' W 048°19'1612.6
2018-May-18 22:45S 00°22' W 048°07'413.3
2018-May-18 22:28S 00°20' W 048°04'612.7
2018-May-18 22:00S 00°18' W 047°58'511.3
2018-May-18 21:30S 00°14' W 047°55'611.5
2018-May-18 21:00S 00°10' W 047°51'611.4
2018-May-18 20:29S 00°07' W 047°46'511.0
2018-May-18 20:00S 00°04' W 047°41'610.6
2018-May-18 19:25S 00°00' W 047°36'510.5
2018-May-18 18:59N 00°02' W 047°32'  
Track history (hours):
 
Tides and Currents Weather Stations Pressure Air Temp Water Temp Dewpoint Dewpoint Depression Visibility Wind Speed Wind Dir Waves Ship Positions

Marguerita

Last reported at 2018-May-23 04:44 UTC. Time now 2018-May-26 10:16 UTC.
Position N 00°00' W 047°35'.

Length 185 m; draft 10.3 m.

Type: Cargo ship. MMSI: 636092597.

Date/timePositionNaut miles runAvg speedWind from/ knotsBaromVisibWave heightAir tempDewpointWater temp
2018-May-23 04:44N 00°00' W 047°35'210.1
2018-May-23 04:30S 00°01' W 047°37'5 9.8
2018-May-23 04:00S 00°04' W 047°41'510.1
2018-May-23 03:28S 00°07' W 047°46'510.6
2018-May-23 03:00S 00°09' W 047°50'710.9
2018-May-23 02:21S 00°14' W 047°55'511.8
2018-May-23 01:55S 00°18' W 047°58'1012.5
2018-May-23 01:07S 00°22' W 048°08'213.1
2018-May-23 00:59S 00°22' W 048°09'613.3
2018-May-23 00:30S 00°27' W 048°14'1113.5
2018-May-22 23:43S 00°35' W 048°21'313.6
2018-May-22 23:30S 00°37' W 048°23'713.4
2018-May-22 23:00S 00°43' W 048°26'612.8
2018-May-22 22:30S 00°49' W 048°29'611.4
2018-May-22 22:00S 00°54' W 048°28'511.0
2018-May-22 21:30S 00°60' W 048°27'510.2
2018-May-22 21:00S 01°04' W 048°29'510.0
2018-May-22 20:31S 01°08' W 048°32'4 7.6
2018-May-22 20:01S 01°12' W 048°33'5 9.1
2018-May-22 19:30S 01°15' W 048°36'5 9.4
2018-May-22 19:00S 01°19' W 048°39'5 9.9
2018-May-22 18:30S 01°24' W 048°41'511.0
2018-May-22 18:00S 01°28' W 048°44'510.5
2018-May-22 17:30S 01°33' W 048°46'1 1.7
2018-May-22 16:51S 01°34' W 048°47'0 0.0
2018-May-22 16:27S 01°34' W 048°47'0 0.0
2018-May-22 15:51S 01°34' W 048°47'0 0.0
2018-May-22 15:15S 01°34' W 048°47'0 0.0
2018-May-22 14:51S 01°34' W 048°47'0 0.0
2018-May-22 14:15S 01°34' W 048°47'0 0.0
2018-May-22 13:57S 01°34' W 048°47'0 0.0
2018-May-22 12:09S 01°34' W 048°47'0 0.0
2018-May-22 11:57S 01°34' W 048°47'0 0.0
2018-May-22 11:21S 01°34' W 048°47'0 0.0
2018-May-22 10:45S 01°34' W 048°47'0 0.0
2018-May-22 10:21S 01°34' W 048°47'0 0.0
2018-May-22 09:57S 01°34' W 048°47'0 0.0
2018-May-22 09:27S 01°34' W 048°47'0 0.0
2018-May-22 08:57S 01°34' W 048°47'0 0.0
2018-May-22 08:27S 01°34' W 048°47'0 0.0
2018-May-22 07:39S 01°34' W 048°47'0 0.0
2018-May-22 07:27S 01°34' W 048°47'0 0.0
2018-May-22 06:57S 01°34' W 048°47'0 0.0
2018-May-22 06:15S 01°34' W 048°47'0 0.0
2018-May-22 05:57S 01°34' W 048°47'0 0.0
2018-May-22 05:27S 01°34' W 048°47'0 0.0
2018-May-22 01:33S 01°34' W 048°47'0 0.0
2018-May-22 01:27S 01°34' W 048°47'0 0.0
2018-May-22 00:57S 01°34' W 048°47'0 0.0
2018-May-22 00:15S 01°34' W 048°47'0 0.0
2018-May-21 23:51S 01°34' W 048°47'0 0.0
2018-May-21 22:57S 01°34' W 048°47'0 0.0
2018-May-21 22:21S 01°34' W 048°47'0 0.0
2018-May-21 21:51S 01°34' W 048°47'0 0.0
2018-May-21 21:27S 01°34' W 048°47'0 0.0
2018-May-21 20:57S 01°34' W 048°47'0 0.0
2018-May-21 20:27S 01°34' W 048°47'0 0.0
2018-May-21 19:57S 01°34' W 048°47'0 0.0
2018-May-21 19:27S 01°34' W 048°47'0 0.0
2018-May-21 18:57S 01°34' W 048°47'0 0.0
2018-May-21 18:27S 01°34' W 048°47'0 0.0
2018-May-21 17:57S 01°34' W 048°47'0 0.0
2018-May-21 17:21S 01°34' W 048°47'0 0.0
2018-May-21 16:57S 01°34' W 048°47'0 0.0
2018-May-21 16:27S 01°34' W 048°47'0 0.0
2018-May-21 15:57S 01°34' W 048°47'0 0.0
2018-May-21 15:21S 01°34' W 048°47'0 0.0
2018-May-21 14:51S 01°34' W 048°47'0 0.0
2018-May-21 14:27S 01°34' W 048°47'0 0.0
2018-May-21 13:57S 01°34' W 048°47'0 0.0
2018-May-21 13:27S 01°34' W 048°47'0 0.0
2018-May-21 12:57S 01°34' W 048°47'0 0.0
2018-May-21 12:27S 01°34' W 048°47'0 0.0
2018-May-21 11:51S 01°34' W 048°47'0 0.0
2018-May-21 11:27S 01°34' W 048°47'0 0.0
2018-May-21 10:57S 01°34' W 048°47'0 0.0
2018-May-21 10:27S 01°34' W 048°47'0 0.0
2018-May-21 09:57S 01°34' W 048°47'0 0.0
2018-May-21 09:27S 01°34' W 048°47'0 0.0
2018-May-21 08:57S 01°34' W 048°47'0 0.0
2018-May-21 08:27S 01°34' W 048°47'0 0.0
2018-May-21 07:57S 01°34' W 048°47'0 0.0
2018-May-21 07:21S 01°34' W 048°47'0 0.0
2018-May-21 06:51S 01°34' W 048°47'0 0.0
2018-May-21 06:27S 01°34' W 048°47'0 0.0
2018-May-21 05:57S 01°34' W 048°47'0 0.0
2018-May-21 05:27S 01°34' W 048°47'0 0.0
2018-May-21 04:57S 01°34' W 048°47'0 0.0
2018-May-21 04:27S 01°34' W 048°47'0 0.0
2018-May-21 03:57S 01°34' W 048°47'0 0.0
2018-May-21 03:27S 01°34' W 048°47'0 0.0
2018-May-21 02:39S 01°34' W 048°47'0 0.0
2018-May-21 02:27S 01°34' W 048°47'0 0.0
2018-May-21 01:57S 01°34' W 048°47'0 0.0
2018-May-21 01:15S 01°34' W 048°47'0 0.0
2018-May-21 00:57S 01°34' W 048°47'0 0.0
2018-May-21 00:27S 01°34' W 048°47'0 0.0
2018-May-20 23:57S 01°34' W 048°47'0 0.0
2018-May-20 23:27S 01°34' W 048°47'0 0.0
2018-May-20 22:57S 01°34' W 048°47'0 0.0
2018-May-20 22:27S 01°34' W 048°47'0 0.0
2018-May-20 21:51S 01°34' W 048°47'0 0.0
2018-May-20 21:27S 01°34' W 048°47'0 0.0
2018-May-20 20:57S 01°34' W 048°47'0 0.0
2018-May-20 16:07S 01°34' W 048°47'0 0.2
2018-May-20 16:00S 01°34' W 048°47'2 3.2
2018-May-20 15:29S 01°32' W 048°47'4 8.7
2018-May-20 15:01S 01°29' W 048°45'612.1
2018-May-20 14:30S 01°24' W 048°42'611.9
2018-May-20 14:01S 01°19' W 048°39'510.7
2018-May-20 13:31S 01°15' W 048°36'510.5
2018-May-20 13:00S 01°10' W 048°33'4 7.8
2018-May-20 12:30S 01°07' W 048°30'2 3.9
2018-May-20 11:59S 01°05' W 048°30'0 0.0
2018-May-20 11:29S 01°05' W 048°30'0 0.0
2018-May-20 10:59S 01°05' W 048°30'0 0.0
2018-May-20 10:29S 01°05' W 048°30'0 0.0
2018-May-20 09:59S 01°05' W 048°30'0 0.0
2018-May-20 09:29S 01°05' W 048°30'0 0.0
2018-May-20 08:59S 01°05' W 048°30'0 0.1
2018-May-20 08:29S 01°05' W 048°30'0 0.3
2018-May-20 07:59S 01°05' W 048°30'0 0.1
2018-May-20 07:29S 01°05' W 048°30'0 0.0
2018-May-20 06:59S 01°05' W 048°30'0 0.0
2018-May-20 06:29S 01°05' W 048°30'0 0.0
2018-May-20 05:59S 01°05' W 048°30'0 0.0
2018-May-20 05:29S 01°05' W 048°30'0 0.0
2018-May-20 04:59S 01°05' W 048°30'0 0.0
2018-May-20 04:29S 01°05' W 048°30'0 0.0
2018-May-20 03:59S 01°05' W 048°30'0 0.0
2018-May-20 03:29S 01°05' W 048°30'0 0.0
2018-May-20 02:59S 01°05' W 048°30'0 0.0
2018-May-20 02:23S 01°05' W 048°30'0 0.4
2018-May-20 01:59S 01°05' W 048°30'0 0.2
2018-May-20 01:29S 01°05' W 048°30'0 0.0
2018-May-20 00:59S 01°05' W 048°30'0 0.0
2018-May-20 00:29S 01°05' W 048°30'0 0.0
2018-May-19 23:59S 01°05' W 048°30'0 0.0
2018-May-19 23:29S 01°05' W 048°30'0 0.0
2018-May-19 22:59S 01°05' W 048°30'0 0.0
2018-May-19 22:29S 01°05' W 048°30'0 0.0
2018-May-19 21:59S 01°05' W 048°30'0 0.0
2018-May-19 21:29S 01°05' W 048°30'0 0.1
2018-May-19 20:59S 01°05' W 048°30'0 0.0
2018-May-19 20:29S 01°05' W 048°30'0 0.1
2018-May-19 19:59S 01°05' W 048°30'0 0.3
2018-May-19 19:29S 01°05' W 048°30'0 0.1
2018-May-19 18:56S 01°05' W 048°30'0 0.1
2018-May-19 18:29S 01°05' W 048°30'0 0.0
2018-May-19 17:56S 01°05' W 048°30'0 0.1
2018-May-19 17:29S 01°05' W 048°30'0 0.0
2018-May-19 16:59S 01°05' W 048°30'0 0.0
2018-May-19 16:29S 01°05' W 048°30'0 0.1
2018-May-19 15:56S 01°05' W 048°30'0 0.0
2018-May-19 15:29S 01°05' W 048°30'0 0.0
2018-May-19 15:00S 01°05' W 048°30'0 0.0
2018-May-19 14:29S 01°05' W 048°30'0 0.0
2018-May-19 13:59S 01°05' W 048°30'0 0.1
2018-May-19 13:29S 01°05' W 048°30'0 0.3
2018-May-19 12:59S 01°05' W 048°30'0 0.1
2018-May-19 12:29S 01°05' W 048°30'0 0.0
2018-May-19 11:59S 01°05' W 048°30'0 0.0
2018-May-19 11:29S 01°05' W 048°30'0 0.0
2018-May-19 10:59S 01°05' W 048°30'0 0.0
2018-May-19 10:29S 01°05' W 048°30'0 0.0
2018-May-19 09:59S 01°05' W 048°30'0 0.0
2018-May-19 09:29S 01°05' W 048°30'0 0.0
2018-May-19 08:59S 01°05' W 048°30'0 0.0
2018-May-19 08:29S 01°05' W 048°30'0 0.0
2018-May-19 07:59S 01°05' W 048°30'0 0.2
2018-May-19 07:26S 01°05' W 048°30'0 0.2
2018-May-19 06:59S 01°05' W 048°30'0 0.1
2018-May-19 06:29S 01°05' W 048°30'0 0.1
2018-May-19 05:59S 01°05' W 048°30'0 0.0
2018-May-19 05:29S 01°05' W 048°30'0 0.0
2018-May-19 04:59S 01°05' W 048°30'0 0.0
2018-May-19 04:29S 01°05' W 048°30'0 0.0
2018-May-19 04:00S 01°05' W 048°30'0 0.4
2018-May-19 03:30S 01°05' W 048°30'3 5.2
2018-May-19 03:00S 01°03' W 048°28'4 8.1
2018-May-19 02:30S 00°60' W 048°27'611.0
2018-May-19 02:00S 00°54' W 048°28'611.2
2018-May-19 01:29S 00°49' W 048°29'713.5
2018-May-19 01:00S 00°43' W 048°26'712.1
2018-May-19 00:28S 00°37' W 048°23'612.7
2018-May-19 00:00S 00°33' W 048°19'1612.6
2018-May-18 22:45S 00°22' W 048°07'413.3
2018-May-18 22:28S 00°20' W 048°04'612.7
2018-May-18 22:00S 00°18' W 047°58'511.3
2018-May-18 21:30S 00°14' W 047°55'611.5
2018-May-18 21:00S 00°10' W 047°51'611.4
2018-May-18 20:29S 00°07' W 047°46'511.0
2018-May-18 20:00S 00°04' W 047°41'610.6
2018-May-18 19:25S 00°00' W 047°36'510.5
2018-May-18 18:59N 00°02' W 047°32'  

Dump ship's entire track history